sensor_id;sensor_type;location;lat;lon;timestamp;P1;durP1;ratioP1;P2;durP2;ratioP2
31764;SDS011;18338;53.240;8.798;2023-07-29T00:00:44;15.75;;;14.15;;
31764;SDS011;18338;53.240;8.798;2023-07-29T00:03:11;18.88;;;13.13;;
31764;SDS011;18338;53.240;8.798;2023-07-29T00:05:38;15.77;;;13.45;;
31764;SDS011;18338;53.240;8.798;2023-07-29T00:08:05;14.60;;;12.60;;
31764;SDS011;18338;53.240;8.798;2023-07-29T00:10:34;18.48;;;14.15;;
31764;SDS011;18338;53.240;8.798;2023-07-29T00:13:03;15.90;;;13.52;;
31764;SDS011;18338;53.240;8.798;2023-07-29T00:15:30;15.32;;;12.10;;
31764;SDS011;18338;53.240;8.798;2023-07-29T00:17:58;16.55;;;14.95;;
31764;SDS011;18338;53.240;8.798;2023-07-29T00:20:25;19.75;;;17.25;;
31764;SDS011;18338;53.240;8.798;2023-07-29T00:22:52;18.88;;;17.00;;
31764;SDS011;18338;53.240;8.798;2023-07-29T00:25:24;18.98;;;17.08;;
31764;SDS011;18338;53.240;8.798;2023-07-29T00:27:51;18.80;;;16.90;;
31764;SDS011;18338;53.240;8.798;2023-07-29T00:30:17;20.08;;;18.08;;
31764;SDS011;18338;53.240;8.798;2023-07-29T00:32:44;21.10;;;18.13;;
31764;SDS011;18338;53.240;8.798;2023-07-29T00:35:11;20.45;;;18.40;;
31764;SDS011;18338;53.240;8.798;2023-07-29T00:37:38;21.13;;;19.02;;
31764;SDS011;18338;53.240;8.798;2023-07-29T00:40:10;22.30;;;19.85;;
31764;SDS011;18338;53.240;8.798;2023-07-29T00:42:42;23.65;;;21.23;;
31764;SDS011;18338;53.240;8.798;2023-07-29T00:45:09;24.92;;;20.75;;
31764;SDS011;18338;53.240;8.798;2023-07-29T00:47:37;23.38;;;20.88;;
31764;SDS011;18338;53.240;8.798;2023-07-29T00:50:05;25.65;;;21.10;;
31764;SDS011;18338;53.240;8.798;2023-07-29T00:52:33;20.95;;;18.83;;
31764;SDS011;18338;53.240;8.798;2023-07-29T00:55:00;23.25;;;20.27;;
31764;SDS011;18338;53.240;8.798;2023-07-29T00:57:27;25.77;;;20.95;;
31764;SDS011;18338;53.240;8.798;2023-07-29T00:59:56;27.05;;;22.30;;
31764;SDS011;18338;53.240;8.798;2023-07-29T01:02:23;35.78;;;25.65;;
31764;SDS011;18338;53.240;8.798;2023-07-29T01:04:53;30.13;;;22.73;;
31764;SDS011;18338;53.240;8.798;2023-07-29T01:07:23;34.47;;;24.95;;
31764;SDS011;18338;53.240;8.798;2023-07-29T01:10:05;37.30;;;27.08;;
31764;SDS011;18338;53.240;8.798;2023-07-29T01:12:59;40.45;;;27.25;;
31764;SDS011;18338;53.240;8.798;2023-07-29T01:15:41;39.13;;;27.17;;
31764;SDS011;18338;53.240;8.798;2023-07-29T01:18:23;36.17;;;26.65;;
31764;SDS011;18338;53.240;8.798;2023-07-29T01:20:59;38.78;;;28.23;;
31764;SDS011;18338;53.240;8.798;2023-07-29T01:23:31;40.88;;;28.40;;
31764;SDS011;18338;53.240;8.798;2023-07-29T01:25:58;37.85;;;26.88;;
31764;SDS011;18338;53.240;8.798;2023-07-29T01:28:25;33.45;;;25.33;;
31764;SDS011;18338;53.240;8.798;2023-07-29T01:30:57;33.72;;;25.88;;
31764;SDS011;18338;53.240;8.798;2023-07-29T01:33:38;38.55;;;27.60;;
31764;SDS011;18338;53.240;8.798;2023-07-29T01:36:18;33.13;;;24.77;;
31764;SDS011;18338;53.240;8.798;2023-07-29T01:38:49;37.42;;;27.65;;
31764;SDS011;18338;53.240;8.798;2023-07-29T01:41:17;37.15;;;27.60;;
31764;SDS011;18338;53.240;8.798;2023-07-29T01:43:46;35.28;;;26.52;;
31764;SDS011;18338;53.240;8.798;2023-07-29T01:46:16;34.03;;;26.42;;
31764;SDS011;18338;53.240;8.798;2023-07-29T01:48:43;34.45;;;26.25;;
31764;SDS011;18338;53.240;8.798;2023-07-29T01:51:11;33.33;;;26.17;;
31764;SDS011;18338;53.240;8.798;2023-07-29T01:53:39;36.22;;;26.90;;
31764;SDS011;18338;53.240;8.798;2023-07-29T01:56:05;34.03;;;26.48;;
31764;SDS011;18338;53.240;8.798;2023-07-29T01:58:32;38.55;;;27.48;;
31764;SDS011;18338;53.240;8.798;2023-07-29T02:00:59;38.80;;;28.10;;
31764;SDS011;18338;53.240;8.798;2023-07-29T02:03:26;39.53;;;27.08;;
31764;SDS011;18338;53.240;8.798;2023-07-29T02:05:53;40.90;;;27.13;;
31764;SDS011;18338;53.240;8.798;2023-07-29T02:08:20;36.60;;;26.60;;
31764;SDS011;18338;53.240;8.798;2023-07-29T02:10:46;36.08;;;25.85;;
31764;SDS011;18338;53.240;8.798;2023-07-29T02:13:15;35.42;;;26.20;;
31764;SDS011;18338;53.240;8.798;2023-07-29T02:15:41;39.33;;;27.67;;
31764;SDS011;18338;53.240;8.798;2023-07-29T02:18:08;40.17;;;28.13;;
31764;SDS011;18338;53.240;8.798;2023-07-29T02:20:35;41.70;;;29.48;;
31764;SDS011;18338;53.240;8.798;2023-07-29T02:23:02;49.83;;;30.52;;
31764;SDS011;18338;53.240;8.798;2023-07-29T02:25:29;43.80;;;29.27;;
31764;SDS011;18338;53.240;8.798;2023-07-29T02:27:55;50.13;;;31.60;;
31764;SDS011;18338;53.240;8.798;2023-07-29T02:30:22;47.10;;;30.98;;
31764;SDS011;18338;53.240;8.798;2023-07-29T02:32:49;61.42;;;33.60;;
31764;SDS011;18338;53.240;8.798;2023-07-29T02:35:16;59.03;;;32.47;;
31764;SDS011;18338;53.240;8.798;2023-07-29T02:37:43;56.15;;;32.63;;
31764;SDS011;18338;53.240;8.798;2023-07-29T02:40:10;52.65;;;31.58;;
31764;SDS011;18338;53.240;8.798;2023-07-29T02:42:37;50.13;;;30.35;;
31764;SDS011;18338;53.240;8.798;2023-07-29T02:45:04;99.80;;;34.15;;
31764;SDS011;18338;53.240;8.798;2023-07-29T02:47:36;69.35;;;33.15;;
31764;SDS011;18338;53.240;8.798;2023-07-29T02:50:03;78.40;;;32.00;;
31764;SDS011;18338;53.240;8.798;2023-07-29T02:52:31;87.55;;;31.17;;
31764;SDS011;18338;53.240;8.798;2023-07-29T02:54:57;72.72;;;31.52;;
31764;SDS011;18338;53.240;8.798;2023-07-29T02:57:24;54.97;;;29.13;;
31764;SDS011;18338;53.240;8.798;2023-07-29T02:59:51;68.45;;;32.28;;
31764;SDS011;18338;53.240;8.798;2023-07-29T03:02:18;62.70;;;30.25;;
31764;SDS011;18338;53.240;8.798;2023-07-29T03:04:44;64.10;;;31.08;;
31764;SDS011;18338;53.240;8.798;2023-07-29T03:07:13;63.35;;;30.25;;
31764;SDS011;18338;53.240;8.798;2023-07-29T03:09:40;69.05;;;30.52;;
31764;SDS011;18338;53.240;8.798;2023-07-29T03:12:08;73.50;;;31.38;;
31764;SDS011;18338;53.240;8.798;2023-07-29T03:14:35;67.57;;;31.98;;
31764;SDS011;18338;53.240;8.798;2023-07-29T03:17:02;77.28;;;31.95;;
31764;SDS011;18338;53.240;8.798;2023-07-29T03:19:30;64.47;;;32.08;;
31764;SDS011;18338;53.240;8.798;2023-07-29T03:21:57;58.88;;;32.05;;
31764;SDS011;18338;53.240;8.798;2023-07-29T03:24:24;109.80;;;32.70;;
31764;SDS011;18338;53.240;8.798;2023-07-29T03:26:51;76.00;;;31.08;;
31764;SDS011;18338;53.240;8.798;2023-07-29T03:29:18;102.18;;;31.90;;
31764;SDS011;18338;53.240;8.798;2023-07-29T03:31:44;117.57;;;34.88;;
31764;SDS011;18338;53.240;8.798;2023-07-29T03:34:11;99.63;;;33.13;;
31764;SDS011;18338;53.240;8.798;2023-07-29T03:36:38;95.53;;;32.28;;
31764;SDS011;18338;53.240;8.798;2023-07-29T03:39:05;58.67;;;28.88;;
31764;SDS011;18338;53.240;8.798;2023-07-29T03:41:33;62.97;;;29.00;;
31764;SDS011;18338;53.240;8.798;2023-07-29T03:44:00;87.13;;;33.03;;
31764;SDS011;18338;53.240;8.798;2023-07-29T03:46:27;56.70;;;30.60;;
31764;SDS011;18338;53.240;8.798;2023-07-29T03:48:54;77.85;;;34.25;;
31764;SDS011;18338;53.240;8.798;2023-07-29T03:51:21;110.47;;;34.83;;
31764;SDS011;18338;53.240;8.798;2023-07-29T03:53:49;82.30;;;32.70;;
31764;SDS011;18338;53.240;8.798;2023-07-29T03:56:15;86.30;;;30.95;;
31764;SDS011;18338;53.240;8.798;2023-07-29T03:58:43;64.32;;;32.28;;
31764;SDS011;18338;53.240;8.798;2023-07-29T04:01:12;50.78;;;30.63;;
31764;SDS011;18338;53.240;8.798;2023-07-29T04:03:40;59.90;;;33.38;;
31764;SDS011;18338;53.240;8.798;2023-07-29T04:06:06;57.42;;;33.55;;
31764;SDS011;18338;53.240;8.798;2023-07-29T04:08:33;58.25;;;33.25;;
31764;SDS011;18338;53.240;8.798;2023-07-29T04:11:00;51.28;;;31.83;;
31764;SDS011;18338;53.240;8.798;2023-07-29T04:13:27;46.45;;;28.75;;
31764;SDS011;18338;53.240;8.798;2023-07-29T04:15:54;59.13;;;30.77;;
31764;SDS011;18338;53.240;8.798;2023-07-29T04:18:21;47.38;;;28.92;;
31764;SDS011;18338;53.240;8.798;2023-07-29T04:20:47;48.50;;;28.77;;
31764;SDS011;18338;53.240;8.798;2023-07-29T04:23:14;42.30;;;29.20;;
31764;SDS011;18338;53.240;8.798;2023-07-29T04:25:41;41.80;;;28.35;;
31764;SDS011;18338;53.240;8.798;2023-07-29T04:30:38;39.45;;;25.73;;
31764;SDS011;18338;53.240;8.798;2023-07-29T04:33:05;39.63;;;26.65;;
31764;SDS011;18338;53.240;8.798;2023-07-29T04:35:31;40.70;;;27.20;;
31764;SDS011;18338;53.240;8.798;2023-07-29T04:37:58;37.85;;;25.67;;
31764;SDS011;18338;53.240;8.798;2023-07-29T04:40:25;50.17;;;28.40;;
31764;SDS011;18338;53.240;8.798;2023-07-29T04:42:51;42.60;;;28.15;;
31764;SDS011;18338;53.240;8.798;2023-07-29T04:45:18;43.78;;;28.65;;
31764;SDS011;18338;53.240;8.798;2023-07-29T04:47:45;40.95;;;27.73;;
31764;SDS011;18338;53.240;8.798;2023-07-29T04:50:12;40.55;;;27.85;;
31764;SDS011;18338;53.240;8.798;2023-07-29T04:52:38;39.35;;;27.52;;
31764;SDS011;18338;53.240;8.798;2023-07-29T04:55:05;39.65;;;27.27;;
31764;SDS011;18338;53.240;8.798;2023-07-29T04:57:32;38.90;;;26.90;;
31764;SDS011;18338;53.240;8.798;2023-07-29T04:59:59;37.60;;;26.02;;
31764;SDS011;18338;53.240;8.798;2023-07-29T05:02:25;34.60;;;27.20;;
31764;SDS011;18338;53.240;8.798;2023-07-29T05:04:52;38.80;;;27.05;;
31764;SDS011;18338;53.240;8.798;2023-07-29T05:07:19;37.17;;;25.90;;
31764;SDS011;18338;53.240;8.798;2023-07-29T05:09:46;36.20;;;26.73;;
31764;SDS011;18338;53.240;8.798;2023-07-29T05:12:14;30.50;;;24.70;;
31764;SDS011;18338;53.240;8.798;2023-07-29T05:14:40;33.08;;;24.65;;
31764;SDS011;18338;53.240;8.798;2023-07-29T05:17:07;27.80;;;22.48;;
31764;SDS011;18338;53.240;8.798;2023-07-29T05:19:34;27.58;;;21.35;;
31764;SDS011;18338;53.240;8.798;2023-07-29T05:22:00;27.17;;;22.23;;
31764;SDS011;18338;53.240;8.798;2023-07-29T05:24:27;26.88;;;21.83;;
31764;SDS011;18338;53.240;8.798;2023-07-29T05:26:54;25.02;;;21.17;;
31764;SDS011;18338;53.240;8.798;2023-07-29T05:29:20;22.98;;;20.33;;
31764;SDS011;18338;53.240;8.798;2023-07-29T05:31:47;20.83;;;18.55;;
31764;SDS011;18338;53.240;8.798;2023-07-29T05:34:14;22.27;;;19.98;;
31764;SDS011;18338;53.240;8.798;2023-07-29T05:36:40;21.10;;;18.48;;
31764;SDS011;18338;53.240;8.798;2023-07-29T05:39:07;22.48;;;18.55;;
31764;SDS011;18338;53.240;8.798;2023-07-29T05:41:34;19.92;;;17.85;;
31764;SDS011;18338;53.240;8.798;2023-07-29T05:44:01;19.67;;;17.60;;
31764;SDS011;18338;53.240;8.798;2023-07-29T05:46:27;19.50;;;17.42;;
31764;SDS011;18338;53.240;8.798;2023-07-29T05:48:54;18.15;;;16.15;;
31764;SDS011;18338;53.240;8.798;2023-07-29T05:51:21;17.65;;;15.95;;
31764;SDS011;18338;53.240;8.798;2023-07-29T05:53:47;17.80;;;15.93;;
31764;SDS011;18338;53.240;8.798;2023-07-29T05:56:14;19.10;;;15.38;;
31764;SDS011;18338;53.240;8.798;2023-07-29T05:58:41;17.05;;;15.38;;
31764;SDS011;18338;53.240;8.798;2023-07-29T06:01:08;17.20;;;15.40;;
31764;SDS011;18338;53.240;8.798;2023-07-29T06:03:34;16.42;;;14.73;;
31764;SDS011;18338;53.240;8.798;2023-07-29T06:06:01;15.77;;;14.10;;
31764;SDS011;18338;53.240;8.798;2023-07-29T06:08:28;16.40;;;14.85;;
31764;SDS011;18338;53.240;8.798;2023-07-29T06:10:55;15.48;;;13.77;;
31764;SDS011;18338;53.240;8.798;2023-07-29T06:13:22;16.08;;;14.48;;
31764;SDS011;18338;53.240;8.798;2023-07-29T06:15:49;15.13;;;13.57;;
31764;SDS011;18338;53.240;8.798;2023-07-29T06:18:16;14.50;;;13.10;;
31764;SDS011;18338;53.240;8.798;2023-07-29T06:20:43;14.60;;;13.02;;
31764;SDS011;18338;53.240;8.798;2023-07-29T06:23:09;14.35;;;12.43;;
31764;SDS011;18338;53.240;8.798;2023-07-29T06:25:36;14.15;;;12.70;;
31764;SDS011;18338;53.240;8.798;2023-07-29T06:28:03;13.98;;;12.38;;
31764;SDS011;18338;53.240;8.798;2023-07-29T06:30:31;13.05;;;11.73;;
31764;SDS011;18338;53.240;8.798;2023-07-29T06:32:57;13.02;;;11.82;;
31764;SDS011;18338;53.240;8.798;2023-07-29T06:35:24;13.80;;;12.43;;
31764;SDS011;18338;53.240;8.798;2023-07-29T06:37:51;13.27;;;11.95;;
31764;SDS011;18338;53.240;8.798;2023-07-29T06:40:17;13.80;;;12.60;;
31764;SDS011;18338;53.240;8.798;2023-07-29T06:42:44;13.02;;;11.73;;
31764;SDS011;18338;53.240;8.798;2023-07-29T06:45:11;13.40;;;11.63;;
31764;SDS011;18338;53.240;8.798;2023-07-29T06:47:37;12.52;;;11.32;;
31764;SDS011;18338;53.240;8.798;2023-07-29T06:50:04;12.32;;;11.18;;
31764;SDS011;18338;53.240;8.798;2023-07-29T06:52:31;11.50;;;10.55;;
31764;SDS011;18338;53.240;8.798;2023-07-29T06:54:58;12.73;;;11.45;;
31764;SDS011;18338;53.240;8.798;2023-07-29T06:57:25;12.65;;;11.50;;
31764;SDS011;18338;53.240;8.798;2023-07-29T06:59:51;12.60;;;11.35;;
31764;SDS011;18338;53.240;8.798;2023-07-29T07:02:18;12.00;;;10.90;;
31764;SDS011;18338;53.240;8.798;2023-07-29T07:04:45;11.60;;;10.60;;
31764;SDS011;18338;53.240;8.798;2023-07-29T07:07:11;11.60;;;10.45;;
31764;SDS011;18338;53.240;8.798;2023-07-29T07:09:38;11.15;;;10.15;;
31764;SDS011;18338;53.240;8.798;2023-07-29T07:12:05;10.98;;;9.88;;
31764;SDS011;18338;53.240;8.798;2023-07-29T07:14:32;10.02;;;9.13;;
31764;SDS011;18338;53.240;8.798;2023-07-29T07:16:59;9.35;;;8.52;;
31764;SDS011;18338;53.240;8.798;2023-07-29T07:19:25;8.82;;;8.02;;
31764;SDS011;18338;53.240;8.798;2023-07-29T07:21:52;9.48;;;7.25;;
31764;SDS011;18338;53.240;8.798;2023-07-29T07:24:19;6.82;;;6.32;;
31764;SDS011;18338;53.240;8.798;2023-07-29T07:26:45;6.88;;;6.22;;
31764;SDS011;18338;53.240;8.798;2023-07-29T07:29:12;6.97;;;6.25;;
31764;SDS011;18338;53.240;8.798;2023-07-29T07:31:38;6.75;;;6.15;;
31764;SDS011;18338;53.240;8.798;2023-07-29T07:34:05;6.22;;;5.63;;
31764;SDS011;18338;53.240;8.798;2023-07-29T07:36:32;5.40;;;4.90;;
31764;SDS011;18338;53.240;8.798;2023-07-29T07:38:58;6.57;;;5.10;;
31764;SDS011;18338;53.240;8.798;2023-07-29T07:41:25;5.10;;;4.70;;
31764;SDS011;18338;53.240;8.798;2023-07-29T07:43:52;4.50;;;4.10;;
31764;SDS011;18338;53.240;8.798;2023-07-29T07:46:18;3.33;;;3.08;;
31764;SDS011;18338;53.240;8.798;2023-07-29T07:48:45;3.90;;;3.53;;
31764;SDS011;18338;53.240;8.798;2023-07-29T07:51:12;3.53;;;3.22;;
31764;SDS011;18338;53.240;8.798;2023-07-29T07:53:39;2.92;;;2.50;;
31764;SDS011;18338;53.240;8.798;2023-07-29T07:56:06;2.00;;;1.80;;
31764;SDS011;18338;53.240;8.798;2023-07-29T07:58:33;2.42;;;2.08;;
31764;SDS011;18338;53.240;8.798;2023-07-29T08:01:01;2.88;;;1.70;;
31764;SDS011;18338;53.240;8.798;2023-07-29T08:03:32;2.50;;;1.70;;
31764;SDS011;18338;53.240;8.798;2023-07-29T08:06:00;2.55;;;1.83;;
31764;SDS011;18338;53.240;8.798;2023-07-29T08:08:27;2.42;;;1.98;;
31764;SDS011;18338;53.240;8.798;2023-07-29T08:10:54;3.50;;;2.20;;
31764;SDS011;18338;53.240;8.798;2023-07-29T08:13:23;3.15;;;1.63;;
31764;SDS011;18338;53.240;8.798;2023-07-29T08:15:51;2.17;;;1.60;;
31764;SDS011;18338;53.240;8.798;2023-07-29T08:18:18;1.42;;;1.33;;
31764;SDS011;18338;53.240;8.798;2023-07-29T08:20:55;2.05;;;1.50;;
31764;SDS011;18338;53.240;8.798;2023-07-29T08:23:35;2.22;;;1.58;;
31764;SDS011;18338;53.240;8.798;2023-07-29T08:26:03;1.60;;;1.13;;
31764;SDS011;18338;53.240;8.798;2023-07-29T08:28:34;1.35;;;1.00;;
31764;SDS011;18338;53.240;8.798;2023-07-29T08:31:02;0.85;;;0.80;;
31764;SDS011;18338;53.240;8.798;2023-07-29T08:33:29;1.00;;;1.00;;
31764;SDS011;18338;53.240;8.798;2023-07-29T08:35:56;1.30;;;1.10;;
31764;SDS011;18338;53.240;8.798;2023-07-29T08:38:23;1.88;;;0.95;;
31764;SDS011;18338;53.240;8.798;2023-07-29T08:43:31;1.25;;;1.15;;
31764;SDS011;18338;53.240;8.798;2023-07-29T08:45:59;2.17;;;1.20;;
31764;SDS011;18338;53.240;8.798;2023-07-29T08:48:33;1.45;;;1.35;;
31764;SDS011;18338;53.240;8.798;2023-07-29T08:51:07;1.20;;;1.10;;
31764;SDS011;18338;53.240;8.798;2023-07-29T08:53:36;2.38;;;0.98;;
31764;SDS011;18338;53.240;8.798;2023-07-29T08:56:03;1.10;;;1.00;;
31764;SDS011;18338;53.240;8.798;2023-07-29T08:58:31;2.60;;;1.15;;
31764;SDS011;18338;53.240;8.798;2023-07-29T09:00:59;1.35;;;1.02;;
31764;SDS011;18338;53.240;8.798;2023-07-29T09:03:26;0.95;;;0.80;;
31764;SDS011;18338;53.240;8.798;2023-07-29T09:05:53;1.60;;;0.93;;
31764;SDS011;18338;53.240;8.798;2023-07-29T09:08:23;1.33;;;1.00;;
31764;SDS011;18338;53.240;8.798;2023-07-29T09:10:54;1.23;;;0.93;;
31764;SDS011;18338;53.240;8.798;2023-07-29T09:13:21;1.30;;;0.90;;
31764;SDS011;18338;53.240;8.798;2023-07-29T09:15:48;1.80;;;0.80;;
31764;SDS011;18338;53.240;8.798;2023-07-29T09:18:16;1.17;;;0.98;;
31764;SDS011;18338;53.240;8.798;2023-07-29T09:20:48;1.33;;;1.20;;
31764;SDS011;18338;53.240;8.798;2023-07-29T09:23:16;1.13;;;1.02;;
31764;SDS011;18338;53.240;8.798;2023-07-29T09:25:43;2.22;;;1.10;;
31764;SDS011;18338;53.240;8.798;2023-07-29T09:28:14;1.10;;;1.00;;
31764;SDS011;18338;53.240;8.798;2023-07-29T09:30:44;1.02;;;0.93;;
31764;SDS011;18338;53.240;8.798;2023-07-29T09:33:12;1.27;;;0.98;;
31764;SDS011;18338;53.240;8.798;2023-07-29T09:35:39;0.90;;;0.90;;
31764;SDS011;18338;53.240;8.798;2023-07-29T09:38:06;1.48;;;1.10;;
31764;SDS011;18338;53.240;8.798;2023-07-29T09:40:37;2.00;;;0.95;;
31764;SDS011;18338;53.240;8.798;2023-07-29T09:43:06;2.38;;;0.90;;
31764;SDS011;18338;53.240;8.798;2023-07-29T09:45:35;1.75;;;1.10;;
31764;SDS011;18338;53.240;8.798;2023-07-29T09:48:03;2.58;;;1.15;;
31764;SDS011;18338;53.240;8.798;2023-07-29T09:50:36;2.15;;;1.50;;
31764;SDS011;18338;53.240;8.798;2023-07-29T09:53:03;1.48;;;1.00;;
31764;SDS011;18338;53.240;8.798;2023-07-29T09:55:32;2.42;;;1.10;;
31764;SDS011;18338;53.240;8.798;2023-07-29T09:58:00;1.33;;;1.10;;
31764;SDS011;18338;53.240;8.798;2023-07-29T10:00:30;2.30;;;1.27;;
31764;SDS011;18338;53.240;8.798;2023-07-29T10:03:00;1.35;;;1.25;;
31764;SDS011;18338;53.240;8.798;2023-07-29T10:05:27;2.20;;;1.40;;
31764;SDS011;18338;53.240;8.798;2023-07-29T10:07:55;1.80;;;1.30;;
31764;SDS011;18338;53.240;8.798;2023-07-29T10:10:23;2.15;;;1.08;;
31764;SDS011;18338;53.240;8.798;2023-07-29T10:12:49;1.50;;;1.40;;
31764;SDS011;18338;53.240;8.798;2023-07-29T10:15:17;1.85;;;1.40;;
31764;SDS011;18338;53.240;8.798;2023-07-29T10:17:43;2.72;;;1.45;;
31764;SDS011;18338;53.240;8.798;2023-07-29T10:20:15;1.58;;;1.48;;
31764;SDS011;18338;53.240;8.798;2023-07-29T10:22:43;1.90;;;1.25;;
31764;SDS011;18338;53.240;8.798;2023-07-29T10:25:16;1.58;;;1.30;;
31764;SDS011;18338;53.240;8.798;2023-07-29T10:27:47;2.40;;;1.30;;
31764;SDS011;18338;53.240;8.798;2023-07-29T10:30:34;3.10;;;1.50;;
31764;SDS011;18338;53.240;8.798;2023-07-29T10:33:04;1.50;;;1.30;;
31764;SDS011;18338;53.240;8.798;2023-07-29T10:35:32;4.30;;;1.45;;
31764;SDS011;18338;53.240;8.798;2023-07-29T10:38:00;1.85;;;1.45;;
31764;SDS011;18338;53.240;8.798;2023-07-29T10:40:43;2.88;;;1.45;;
31764;SDS011;18338;53.240;8.798;2023-07-29T10:43:11;1.73;;;1.20;;
31764;SDS011;18338;53.240;8.798;2023-07-29T10:45:41;1.83;;;1.67;;
31764;SDS011;18338;53.240;8.798;2023-07-29T10:48:12;3.30;;;1.30;;
31764;SDS011;18338;53.240;8.798;2023-07-29T10:50:39;1.70;;;1.40;;
31764;SDS011;18338;53.240;8.798;2023-07-29T10:53:06;2.95;;;1.60;;
31764;SDS011;18338;53.240;8.798;2023-07-29T10:55:34;2.30;;;1.48;;
31764;SDS011;18338;53.240;8.798;2023-07-29T10:58:11;1.90;;;1.20;;
31764;SDS011;18338;53.240;8.798;2023-07-29T11:00:46;2.50;;;1.50;;
31764;SDS011;18338;53.240;8.798;2023-07-29T11:03:13;2.80;;;1.50;;
31764;SDS011;18338;53.240;8.798;2023-07-29T11:08:20;2.45;;;1.70;;
31764;SDS011;18338;53.240;8.798;2023-07-29T11:13:29;2.88;;;1.63;;
31764;SDS011;18338;53.240;8.798;2023-07-29T11:15:57;1.75;;;1.48;;
31764;SDS011;18338;53.240;8.798;2023-07-29T11:18:29;2.15;;;1.60;;
31764;SDS011;18338;53.240;8.798;2023-07-29T11:21:02;3.42;;;1.77;;
31764;SDS011;18338;53.240;8.798;2023-07-29T11:23:30;2.10;;;1.60;;
31764;SDS011;18338;53.240;8.798;2023-07-29T11:26:02;2.33;;;1.55;;
31764;SDS011;18338;53.240;8.798;2023-07-29T11:28:30;1.83;;;1.60;;
31764;SDS011;18338;53.240;8.798;2023-07-29T11:30:57;1.70;;;1.60;;
31764;SDS011;18338;53.240;8.798;2023-07-29T11:33:25;1.80;;;1.50;;
31764;SDS011;18338;53.240;8.798;2023-07-29T11:35:55;2.30;;;1.58;;
31764;SDS011;18338;53.240;8.798;2023-07-29T11:38:22;2.28;;;1.65;;
31764;SDS011;18338;53.240;8.798;2023-07-29T11:40:56;1.58;;;1.30;;
31764;SDS011;18338;53.240;8.798;2023-07-29T11:43:24;1.73;;;1.35;;
31764;SDS011;18338;53.240;8.798;2023-07-29T11:45:51;1.33;;;1.20;;
31764;SDS011;18338;53.240;8.798;2023-07-29T11:48:25;1.70;;;1.33;;
31764;SDS011;18338;53.240;8.798;2023-07-29T11:51:01;1.80;;;1.30;;
31764;SDS011;18338;53.240;8.798;2023-07-29T11:53:29;1.50;;;1.40;;
31764;SDS011;18338;53.240;8.798;2023-07-29T11:55:58;1.88;;;1.40;;
31764;SDS011;18338;53.240;8.798;2023-07-29T11:58:25;1.83;;;1.30;;
31764;SDS011;18338;53.240;8.798;2023-07-29T12:00:52;1.35;;;1.20;;
31764;SDS011;18338;53.240;8.798;2023-07-29T12:03:19;1.83;;;1.30;;
31764;SDS011;18338;53.240;8.798;2023-07-29T12:05:47;1.83;;;1.00;;
31764;SDS011;18338;53.240;8.798;2023-07-29T12:08:15;1.10;;;1.00;;
31764;SDS011;18338;53.240;8.798;2023-07-29T12:10:50;1.40;;;1.17;;
31764;SDS011;18338;53.240;8.798;2023-07-29T12:13:23;1.88;;;1.38;;
31764;SDS011;18338;53.240;8.798;2023-07-29T12:16:03;2.25;;;1.60;;
31764;SDS011;18338;53.240;8.798;2023-07-29T12:18:31;2.05;;;1.25;;
31764;SDS011;18338;53.240;8.798;2023-07-29T12:20:59;1.40;;;1.30;;
31764;SDS011;18338;53.240;8.798;2023-07-29T12:23:26;1.35;;;1.20;;
31764;SDS011;18338;53.240;8.798;2023-07-29T12:26:16;1.58;;;1.48;;
31764;SDS011;18338;53.240;8.798;2023-07-29T12:28:46;2.00;;;1.42;;
31764;SDS011;18338;53.240;8.798;2023-07-29T12:31:14;2.28;;;1.13;;
31764;SDS011;18338;53.240;8.798;2023-07-29T12:33:40;2.03;;;1.30;;
31764;SDS011;18338;53.240;8.798;2023-07-29T12:36:08;2.60;;;0.90;;
31764;SDS011;18338;53.240;8.798;2023-07-29T12:38:36;1.67;;;1.10;;
31764;SDS011;18338;53.240;8.798;2023-07-29T12:41:03;1.23;;;1.13;;
31764;SDS011;18338;53.240;8.798;2023-07-29T12:43:30;2.95;;;1.35;;
31764;SDS011;18338;53.240;8.798;2023-07-29T12:45:57;2.67;;;1.40;;
31764;SDS011;18338;53.240;8.798;2023-07-29T12:48:24;1.63;;;1.02;;
31764;SDS011;18338;53.240;8.798;2023-07-29T12:50:50;2.30;;;1.30;;
31764;SDS011;18338;53.240;8.798;2023-07-29T12:53:17;1.50;;;1.35;;
31764;SDS011;18338;53.240;8.798;2023-07-29T12:55:44;1.40;;;1.27;;
31764;SDS011;18338;53.240;8.798;2023-07-29T12:58:11;1.63;;;1.30;;
31764;SDS011;18338;53.240;8.798;2023-07-29T13:00:37;1.58;;;1.48;;
31764;SDS011;18338;53.240;8.798;2023-07-29T13:03:04;2.78;;;1.05;;
31764;SDS011;18338;53.240;8.798;2023-07-29T13:05:32;2.78;;;1.30;;
31764;SDS011;18338;53.240;8.798;2023-07-29T13:07:59;2.00;;;1.08;;
31764;SDS011;18338;53.240;8.798;2023-07-29T13:10:26;1.52;;;1.20;;
31764;SDS011;18338;53.240;8.798;2023-07-29T13:12:52;1.35;;;1.13;;
31764;SDS011;18338;53.240;8.798;2023-07-29T13:15:19;2.35;;;1.20;;
31764;SDS011;18338;53.240;8.798;2023-07-29T13:17:46;1.80;;;1.40;;
31764;SDS011;18338;53.240;8.798;2023-07-29T13:20:12;1.95;;;1.23;;
31764;SDS011;18338;53.240;8.798;2023-07-29T13:22:39;2.35;;;1.40;;
31764;SDS011;18338;53.240;8.798;2023-07-29T13:25:06;1.27;;;1.10;;
31764;SDS011;18338;53.240;8.798;2023-07-29T13:27:33;2.03;;;1.00;;
31764;SDS011;18338;53.240;8.798;2023-07-29T13:30:00;1.90;;;1.20;;
31764;SDS011;18338;53.240;8.798;2023-07-29T13:32:26;2.17;;;1.13;;
31764;SDS011;18338;53.240;8.798;2023-07-29T13:34:53;1.27;;;1.17;;
31764;SDS011;18338;53.240;8.798;2023-07-29T13:37:20;1.42;;;1.10;;
31764;SDS011;18338;53.240;8.798;2023-07-29T13:39:46;2.25;;;1.30;;
31764;SDS011;18338;53.240;8.798;2023-07-29T13:42:13;1.70;;;1.10;;
31764;SDS011;18338;53.240;8.798;2023-07-29T13:44:40;1.15;;;1.00;;
31764;SDS011;18338;53.240;8.798;2023-07-29T13:47:06;1.02;;;0.90;;
31764;SDS011;18338;53.240;8.798;2023-07-29T13:49:33;1.17;;;1.02;;
31764;SDS011;18338;53.240;8.798;2023-07-29T13:52:00;1.23;;;0.98;;
31764;SDS011;18338;53.240;8.798;2023-07-29T13:54:26;1.27;;;1.02;;
31764;SDS011;18338;53.240;8.798;2023-07-29T13:56:55;1.77;;;1.30;;
31764;SDS011;18338;53.240;8.798;2023-07-29T13:59:21;2.03;;;1.20;;
31764;SDS011;18338;53.240;8.798;2023-07-29T14:01:48;2.45;;;0.88;;
31764;SDS011;18338;53.240;8.798;2023-07-29T14:04:15;1.80;;;1.20;;
31764;SDS011;18338;53.240;8.798;2023-07-29T14:06:41;1.45;;;1.05;;
31764;SDS011;18338;53.240;8.798;2023-07-29T14:09:12;1.65;;;1.10;;
31764;SDS011;18338;53.240;8.798;2023-07-29T14:11:39;1.65;;;0.88;;
31764;SDS011;18338;53.240;8.798;2023-07-29T14:14:06;2.72;;;1.40;;
31764;SDS011;18338;53.240;8.798;2023-07-29T14:16:34;2.97;;;1.35;;
31764;SDS011;18338;53.240;8.798;2023-07-29T14:19:01;2.08;;;1.23;;
31764;SDS011;18338;53.240;8.798;2023-07-29T14:21:28;1.85;;;1.10;;
31764;SDS011;18338;53.240;8.798;2023-07-29T14:23:54;2.33;;;0.95;;
31764;SDS011;18338;53.240;8.798;2023-07-29T14:26:21;1.27;;;0.82;;
31764;SDS011;18338;53.240;8.798;2023-07-29T14:28:48;1.50;;;0.98;;
31764;SDS011;18338;53.240;8.798;2023-07-29T14:31:16;1.65;;;1.20;;
31764;SDS011;18338;53.240;8.798;2023-07-29T14:33:43;0.85;;;0.73;;
31764;SDS011;18338;53.240;8.798;2023-07-29T14:36:11;0.73;;;0.73;;
31764;SDS011;18338;53.240;8.798;2023-07-29T14:38:37;1.08;;;0.98;;
31764;SDS011;18338;53.240;8.798;2023-07-29T14:41:04;1.13;;;0.90;;
31764;SDS011;18338;53.240;8.798;2023-07-29T14:43:31;5.57;;;2.00;;
31764;SDS011;18338;53.240;8.798;2023-07-29T14:45:57;3.67;;;2.03;;
31764;SDS011;18338;53.240;8.798;2023-07-29T14:48:24;2.50;;;2.30;;
31764;SDS011;18338;53.240;8.798;2023-07-29T14:50:51;2.90;;;2.47;;